Time;durP1;ratioP1;P1;durP2;ratioP2;P2;SDS_P1;SDS_P2;PMS_P1;PMS_P2;Temp;Humidity;BMP_temperature;BMP_pressure;BME280_temperature;BME280_humidity;BME280_pressure;Samples;Min_cycle;Max_cycle;Signal;HPM_P1;HPM_P2
2022/08/11 00:01:59;;;;;;;3.83;3.53;;;23.50;51.40;;;24.55;34.80;101057.78;4954484;28;20667;-69
2022/08/11 00:04:34;;;;;;;4.07;3.80;;;23.50;51.60;;;24.69;34.57;101048.06;4972401;28;20608;-69
2022/08/11 00:07:05;;;;;;;5.10;4.70;;;23.50;51.70;;;24.62;34.75;101060.50;4970259;28;20647;-70
2022/08/11 00:09:36;;;;;;;6.10;5.13;;;23.50;51.90;;;24.55;34.84;101056.97;4972163;28;20624;-70
2022/08/11 00:12:15;;;;;;;4.70;4.40;;;23.50;52.00;;;24.54;34.96;101060.66;4967921;28;20677;-69
2022/08/11 00:14:43;;;;;;;4.00;3.73;;;23.50;52.10;;;24.42;35.07;101063.00;4962902;28;20640;-70
2022/08/11 00:17:13;;;;;;;5.37;4.13;;;23.40;52.10;;;24.36;35.16;101057.59;4970293;28;21227;-69
2022/08/11 00:19:46;;;;;;;7.20;4.00;;;23.40;52.20;;;24.33;35.23;101061.47;4970338;28;20755;-69
2022/08/11 00:22:37;;;;;;;4.60;4.20;;;23.30;52.30;;;24.38;35.17;101056.38;4972367;28;21019;-69
2022/08/11 00:25:19;;;;;;;3.93;3.67;;;23.30;52.20;;;24.38;35.14;101071.56;4973519;28;20655;-70
2022/08/11 00:27:47;;;;;;;4.13;3.83;;;23.30;52.30;;;24.41;35.44;101068.50;4972330;28;20653;-69
2022/08/11 00:30:15;;;;;;;4.33;4.03;;;23.30;52.60;;;24.38;36.10;101066.25;4970632;28;20674;-69
2022/08/11 00:32:54;;;;;;;7.50;4.30;;;23.30;52.90;;;24.16;36.43;101067.22;4986945;28;21034;-70
2022/08/11 00:35:27;;;;;;;4.30;4.00;;;23.20;53.20;;;23.98;37.05;101064.09;4972891;28;20650;-69
2022/08/11 00:38:16;;;;;;;4.00;3.60;;;23.10;53.60;;;23.98;36.91;101061.44;4957688;28;20628;-70
2022/08/11 00:41:14;;;;;;;4.63;4.10;;;23.00;53.80;;;23.80;37.60;101052.00;4972782;28;20758;-69
2022/08/11 00:44:18;;;;;;;5.27;4.33;;;23.00;54.00;;;23.87;37.42;101060.09;4970658;28;20647;-70
2022/08/11 00:47:10;;;;;;;8.93;4.03;;;22.90;54.30;;;23.83;37.36;101056.09;4959034;28;21196;-69
2022/08/11 00:49:52;;;;;;;3.60;3.40;;;22.80;54.20;;;23.85;37.16;101054.91;4956840;28;21226;-68
2022/08/11 00:52:47;;;;;;;6.03;4.60;;;22.80;54.20;;;23.78;37.45;101058.53;4972100;28;20667;-69
2022/08/11 00:55:44;;;;;;;6.60;4.70;;;22.80;54.10;;;23.62;37.68;101059.53;4979171;28;21026;-71
2022/08/11 00:58:43;;;;;;;5.67;4.77;;;22.80;54.30;;;23.76;37.56;101058.72;4971610;28;21262;-69
2022/08/11 01:01:16;;;;;;;5.87;4.57;;;22.80;54.50;;;23.77;37.45;101055.03;4970303;28;20665;-69
2022/08/11 01:04:54;;;;;;;6.33;4.80;;;22.70;54.60;;;23.62;38.33;101048.03;4969839;28;21091;-69
2022/08/11 01:07:48;;;;;;;4.77;4.37;;;22.70;54.80;;;23.70;38.41;101050.63;4872510;29;20668;-69
2022/08/11 01:10:53;;;;;;;6.70;4.70;;;22.70;55.30;;;23.76;38.09;101063.22;4875694;29;20711;-69
2022/08/11 01:13:52;;;;;;;5.20;4.17;;;22.70;55.10;;;23.69;38.31;101062.28;4966076;28;20671;-71
2022/08/11 01:16:55;;;;;;;3.67;3.37;;;22.70;55.40;;;23.78;38.24;101058.53;4971303;28;20987;-69
2022/08/11 01:20:20;;;;;;;3.60;3.30;;;22.70;55.30;;;23.69;38.23;101052.47;4970466;28;21216;-70
2022/08/11 01:23:40;;;;;;;3.43;3.23;;;22.70;55.30;;;23.57;38.47;101061.09;4971090;28;20638;-69
2022/08/11 01:26:54;;;;;;;4.67;3.37;;;22.60;55.40;;;23.57;38.13;101061.94;4969804;28;20647;-69
2022/08/11 01:30:31;;;;;;;4.60;4.20;;;22.60;55.30;;;23.39;38.49;101058.78;4969957;28;20843;-69
2022/08/11 01:33:26;;;;;;;4.53;4.00;;;22.50;55.50;;;23.50;39.04;101060.19;4971631;28;20655;-67
2022/08/11 01:36:36;;;;;;;4.10;3.80;;;22.50;56.00;;;23.46;38.86;101054.41;4965568;28;20616;-70
2022/08/11 01:39:31;;;;;;;4.20;3.90;;;22.50;56.10;;;23.40;39.21;101059.63;4970550;28;20656;-69
2022/08/11 01:45:56;;;;;;;5.63;4.13;;;22.40;56.30;;;23.52;39.43;101063.47;4972254;28;21199;-69
2022/08/11 01:48:41;;;;;;;4.20;3.90;;;22.40;56.70;;;23.36;39.71;101067.13;4971040;28;20643;-70
2022/08/11 01:51:32;;;;;;;4.37;4.07;;;22.40;56.80;;;23.31;39.84;101066.84;4979138;28;20663;-71
2022/08/11 01:54:26;;;;;;;4.00;3.70;;;22.40;56.90;;;23.36;39.67;101066.34;4978648;28;20677;-69
2022/08/11 01:57:08;;;;;;;3.97;3.67;;;22.30;57.00;;;23.13;40.08;101061.84;4979705;28;20640;-70
2022/08/11 01:59:49;;;;;;;4.20;3.67;;;22.30;57.10;;;23.02;39.98;101075.59;4977225;28;21222;-69
2022/08/11 02:02:52;;;;;;;5.40;4.33;;;22.20;57.20;;;23.12;40.41;101073.53;4954691;28;20657;-69
2022/08/11 02:05:42;;;;;;;5.43;4.27;;;22.10;57.50;;;23.21;40.37;101076.94;4954468;28;20658;-69
2022/08/11 02:08:48;;;;;;;4.97;4.47;;;22.20;57.60;;;23.24;40.35;101075.72;4969993;28;21449;-70
2022/08/11 02:11:29;;;;;;;5.07;4.57;;;22.20;57.70;;;23.19;40.23;101072.81;4969285;28;20650;-70
2022/08/11 02:14:56;;;;;;;4.30;4.10;;;22.20;57.70;;;23.01;40.21;101071.28;4977058;28;20667;-69
2022/08/11 02:18:12;;;;;;;4.67;4.27;;;22.20;57.30;;;22.93;40.59;101075.88;4971274;28;21214;-69
2022/08/11 02:23:59;;;;;;;4.73;4.30;;;22.00;57.90;;;22.93;40.74;101076.69;4975733;28;20636;-70
2022/08/11 02:26:43;;;;;;;4.40;3.90;;;22.00;57.90;;;22.99;40.71;101072.47;4969050;28;20723;-69
2022/08/11 02:30:17;;;;;;;4.60;4.20;;;22.00;58.00;;;22.95;40.67;101066.69;4978527;28;20651;-69
2022/08/11 02:33:25;;;;;;;4.60;4.23;;;22.00;58.00;;;23.03;40.78;101063.97;4916635;28;20667;-70
2022/08/11 02:35:56;;;;;;;5.30;4.27;;;22.00;58.30;;;22.91;41.11;101057.38;4962054;28;20639;-69
2022/08/11 02:39:08;;;;;;;4.47;4.07;;;22.00;58.20;;;22.84;41.01;101058.31;4973966;28;20623;-69
2022/08/11 02:42:29;;;;;;;4.60;4.20;;;21.90;58.50;;;22.77;41.47;101058.19;4973010;28;20670;-69
2022/08/11 02:45:36;;;;;;;4.57;4.10;;;21.90;58.80;;;22.80;41.28;101057.84;4973786;28;20639;-71
2022/08/11 02:52:04;;;;;;;4.40;4.10;;;21.80;58.70;;;22.59;41.61;101054.19;4974378;28;20634;-70
2022/08/11 02:54:43;;;;;;;4.17;3.87;;;21.70;58.90;;;22.59;41.40;101057.69;4972434;28;20627;-69
2022/08/11 02:57:29;;;;;;;4.57;4.20;;;21.60;59.10;;;22.57;42.20;101058.81;4974559;28;20615;-69
2022/08/11 03:00:13;;;;;;;4.17;3.80;;;21.60;59.60;;;22.51;42.82;101062.19;4968015;28;20651;-69
2022/08/11 03:03:20;;;;;;;5.00;4.47;;;21.60;60.70;;;22.59;43.02;101060.34;4989335;28;20623;-69
2022/08/11 03:06:43;;;;;;;4.80;4.37;;;21.50;60.70;;;22.34;43.62;101064.09;4990158;28;20615;-70
2022/08/11 03:09:23;;;;;;;4.73;4.33;;;21.40;60.90;;;22.40;43.34;101066.09;4938221;29;21008;-70
2022/08/11 03:18:25;;;;;;;6.43;4.87;;;21.40;61.30;;;22.47;43.10;101059.03;4984012;28;20646;-69
2022/08/11 03:21:29;;;;;;;5.00;4.50;;;21.50;61.10;;;22.50;43.02;101056.03;4988414;28;20694;-69
2022/08/11 03:24:45;;;;;;;8.13;5.10;;;21.50;60.90;;;22.46;43.61;101069.88;4967759;28;20623;-69
2022/08/11 03:27:52;;;;;;;5.20;4.73;;;21.50;61.50;;;22.45;43.34;101062.88;4972747;28;20727;-69
2022/08/11 03:31:18;;;;;;;5.20;4.70;;;21.50;61.40;;;22.30;43.67;101068.13;4967076;28;20674;-70
2022/08/11 03:34:04;;;;;;;5.03;4.40;;;21.40;61.50;;;22.42;43.53;101071.22;4954345;28;21234;-69
2022/08/11 03:37:47;;;;;;;4.90;4.50;;;21.40;61.40;;;22.44;43.00;101066.56;4976340;28;20646;-69
2022/08/11 03:43:45;;;;;;;5.40;4.90;;;21.40;61.80;;;22.24;43.83;101076.81;4969597;28;20634;-69
2022/08/11 03:47:06;;;;;;;5.00;4.60;;;21.30;62.00;;;22.25;43.65;101066.00;4977593;28;20619;-69
2022/08/11 03:50:07;;;;;;;4.80;4.40;;;21.30;62.00;;;22.28;43.55;101076.28;4972385;28;20611;-70
2022/08/11 03:53:12;;;;;;;5.00;4.50;;;21.30;61.80;;;22.31;43.56;101075.94;4973044;28;21343;-69
2022/08/11 03:56:10;;;;;;;6.87;4.57;;;21.30;61.90;;;22.30;44.07;101078.75;4931380;29;20617;-69
2022/08/11 03:59:21;;;;;;;5.60;5.10;;;21.30;62.10;;;22.16;44.25;101076.84;4959953;28;20627;-68
2022/08/11 04:02:30;;;;;;;4.87;4.40;;;21.20;62.30;;;21.88;44.88;101083.63;4972887;28;20654;-71
2022/08/11 04:06:06;;;;;;;5.53;4.70;;;21.00;62.90;;;22.01;44.49;101078.59;4962114;28;20635;-68
2022/08/11 04:09:00;;;;;;;7.70;4.93;;;20.90;62.90;;;22.03;44.70;101084.56;4987589;28;21190;-68
2022/08/11 04:11:45;;;;;;;5.30;4.80;;;21.00;63.00;;;22.08;44.50;101076.91;4972977;28;20646;-70
2022/08/11 04:17:56;;;;;;;6.47;5.30;;;21.00;63.00;;;21.77;45.07;101078.66;4972809;28;20693;-70
2022/08/11 04:21:03;;;;;;;5.43;4.90;;;20.90;63.00;;;21.80;44.74;101075.66;4971592;28;20685;-70
2022/08/11 04:24:03;;;;;;;5.97;5.20;;;20.90;63.10;;;21.49;45.30;101080.91;4967365;28;20643;-70
2022/08/11 04:27:21;;;;;;;8.30;5.03;;;20.70;63.30;;;21.19;46.41;101077.13;4961579;28;21214;-68
2022/08/11 04:30:16;;;;;;;5.60;4.83;;;20.60;63.70;;;21.43;45.38;101065.66;4966879;28;20670;-69
2022/08/11 04:33:33;;;;;;;16.70;5.30;;;20.60;63.90;;;21.57;45.28;101079.03;4956267;28;20661;-70
2022/08/11 04:36:08;;;;;;;7.30;4.67;;;20.70;63.60;;;21.56;45.31;101082.72;4978031;28;20979;-68
2022/08/11 04:39:18;;;;;;;5.43;4.93;;;20.70;63.50;;;21.78;44.72;101082.97;4972526;28;20616;-68
2022/08/11 04:45:23;;;;;;;6.57;5.00;;;20.70;63.40;;;21.79;44.91;101081.97;4972760;28;20630;-68
2022/08/11 05:01:39;;;;;;;8.83;5.43;;;21.00;63.20;;;22.33;43.94;101084.56;4972147;28;20642;-70
2022/08/11 05:02:40;;;;;;;5.90;5.30;;;21.60;62.60;;;22.69;43.95;101087.53;4968915;28;20676;-68
2022/08/11 05:05:51;;;;;;;5.77;5.27;;;21.70;62.50;;;23.09;42.77;101089.00;4952422;29;21178;-68
2022/08/11 05:08:28;;;;;;;6.57;5.40;;;21.90;62.00;;;23.35;42.40;101099.28;4957203;28;20671;-69
2022/08/11 05:11:33;;;;;;;5.80;5.30;;;22.30;61.20;;;23.51;42.28;101094.63;4973228;28;20724;-68
2022/08/11 05:35:48;;;;;;;5.67;5.10;;;24.40;57.20;;;25.72;37.75;101107.03;4969247;28;20668;-70
2022/08/11 05:58:43;;;;;;;4.87;4.57;;;27.30;52.80;;;29.55;32.04;101121.00;4970685;28;20634;-68
2022/08/11 06:01:20;;;;;;;8.77;5.87;;;27.70;52.20;;;30.18;30.98;101123.38;4978839;28;21293;-67
2022/08/11 06:06:45;;;;;;;7.33;5.27;;;28.60;50.70;;;31.17;28.84;101124.47;4988117;28;20626;-69
2022/08/11 06:09:13;;;;;;;5.70;5.30;;;29.10;49.70;;;31.19;28.66;101124.22;4990207;28;20729;-69
2022/08/11 06:11:42;;;;;;;5.57;5.07;;;29.30;49.00;;;32.00;27.50;101126.91;4972297;28;20681;-68
2022/08/11 06:14:14;;;;;;;5.43;4.53;;;29.60;48.80;;;32.59;27.05;101125.66;4973937;28;20672;-69
2022/08/11 06:16:42;;;;;;;5.40;5.00;;;30.00;48.60;;;33.47;25.56;101129.31;4972870;28;20615;-68
2022/08/11 06:19:09;;;;;;;6.83;5.20;;;30.60;47.60;;;34.59;24.75;101131.53;4972418;28;20632;-70
2022/08/11 06:21:37;;;;;;;5.00;4.60;;;31.30;47.10;;;34.43;24.87;101127.84;4973018;28;20730;-68
2022/08/11 06:24:11;;;;;;;6.67;4.50;;;31.40;46.30;;;35.56;23.71;101137.53;4986542;28;20612;-69
2022/08/11 06:26:49;;;;;;;7.30;4.07;;;32.00;46.00;;;36.22;22.57;101136.78;4974586;28;20625;-69
2022/08/11 06:29:45;;;;;;;4.43;4.13;;;32.50;45.40;;;36.79;21.41;101135.81;4980683;28;20634;-69
2022/08/11 06:32:15;;;;;;;6.87;4.70;;;33.00;44.70;;;37.30;21.68;101137.44;4973478;28;20630;-69
2022/08/11 06:35:11;;;;;;;4.90;4.53;;;33.00;45.00;;;37.73;20.29;101136.81;4974007;28;20675;-69
2022/08/11 06:38:02;;;;;;;5.60;4.70;;;33.40;44.30;;;38.44;20.56;101137.31;4973539;28;20635;-68
2022/08/11 06:44:04;;;;;;;4.73;4.43;;;34.70;43.30;;;41.09;17.98;101138.38;4967695;28;21002;-70
2022/08/11 06:46:40;;;;;;;7.40;4.60;;;35.70;42.80;;;41.92;17.45;101135.44;4937970;29;20748;-71
2022/08/11 06:52:12;;;;;;;5.13;4.73;;;36.50;41.70;;;42.21;17.01;101138.69;4963624;28;20636;-70
2022/08/11 06:55:14;;;;;;;6.73;4.77;;;36.70;41.40;;;42.80;16.55;101137.56;4945410;28;20654;-69
2022/08/11 07:00:53;;;;;;;5.23;4.60;;;36.80;40.90;;;42.56;16.91;101123.31;4969697;28;21297;-69
2022/08/11 07:03:22;;;;;;;5.10;4.70;;;36.80;41.30;;;41.79;17.40;101131.59;4987375;28;20638;-69
2022/08/11 07:06:02;;;;;;;6.00;4.40;;;36.20;41.40;;;41.21;17.95;101119.56;4978051;28;20637;-69
2022/08/11 07:29:13;;;;;;;4.37;4.07;;;34.00;43.30;;;37.33;21.32;101113.19;4973777;28;20645;-70
2022/08/11 07:31:45;;;;;;;5.27;4.70;;;33.70;44.30;;;36.62;21.97;101111.59;4981364;28;20666;-70
2022/08/11 07:34:26;;;;;;;4.53;4.20;;;33.30;44.10;;;36.42;22.60;101112.38;4972755;28;20656;-70
2022/08/11 07:36:56;;;;;;;8.00;4.80;;;33.00;44.50;;;36.06;22.97;101107.09;4972370;28;20639;-68
2022/08/11 07:39:31;;;;;;;4.80;4.40;;;32.80;44.60;;;35.79;23.13;101104.53;4973071;28;20638;-69
2022/08/11 07:42:05;;;;;;;5.60;4.47;;;32.60;44.70;;;34.84;24.15;101096.56;4971924;28;21077;-67
2022/08/11 07:48:10;;;;;;;5.87;5.10;;;32.30;45.10;;;34.65;24.20;101096.09;4956932;28;20962;-67
2022/08/11 07:53:02;;;;;;;4.63;4.33;;;31.50;46.40;;;33.67;25.50;101106.34;4976730;28;20615;-70
2022/08/11 07:55:33;;;;;;;4.60;4.10;;;31.30;46.40;;;33.89;25.55;101101.72;4972854;28;21321;-70
2022/08/11 08:18:13;;;;;;;3.47;3.27;;;31.50;46.10;;;33.43;25.40;101105.72;4986309;28;20710;-67
2022/08/11 08:21:10;;;;;;;4.53;3.43;;;31.40;44.80;;;33.37;25.22;101091.28;4972699;28;20666;-69
2022/08/11 08:23:40;;;;;;;4.00;3.60;;;31.50;45.30;;;33.12;25.44;101093.59;4973496;28;20705;-67
2022/08/11 08:31:48;;;;;;;4.30;3.90;;;31.70;45.30;;;33.45;25.78;101095.44;4957338;28;20670;-68
2022/08/11 08:34:16;;;;;;;3.50;3.30;;;31.60;45.20;;;33.35;25.91;101087.22;4971968;28;20681;-68
2022/08/11 08:36:49;;;;;;;5.90;3.70;;;31.60;45.20;;;32.58;26.40;101094.31;4973576;28;20623;-67
2022/08/11 08:39:21;;;;;;;1.93;1.83;;;31.40;45.10;;;32.30;26.25;101091.59;4971561;28;20661;-68
2022/08/11 08:41:53;;;;;;;3.17;2.97;;;31.20;45.20;;;32.36;26.71;101087.94;4954800;28;20651;-68
2022/08/11 08:44:21;;;;;;;3.50;3.30;;;30.90;45.90;;;32.00;27.38;101081.84;4971824;28;20645;-71
2022/08/11 08:47:14;;;;;;;5.53;3.50;;;30.60;46.00;;;32.37;25.94;101076.88;4973039;28;20619;-68
2022/08/11 08:50:20;;;;;;;3.00;2.80;;;30.80;45.10;;;32.78;25.01;101081.97;4966756;28;20667;-69
2022/08/11 08:53:04;;;;;;;2.80;2.60;;;31.10;44.50;;;31.92;26.13;101087.59;4972662;28;20630;-68
2022/08/11 08:55:32;;;;;;;6.50;4.93;;;30.90;44.30;;;31.44;26.44;101087.09;4945364;28;20718;-68
2022/08/11 08:58:01;;;;;;;3.73;3.47;;;30.50;44.70;;;31.65;26.29;101081.09;4957388;28;20702;-68
2022/08/11 09:00:50;;;;;;;7.20;3.83;;;30.40;45.10;;;31.64;26.26;101076.75;4957639;28;20632;-67
2022/08/11 09:03:18;;;;;;;2.83;2.70;;;30.60;44.60;;;31.00;27.23;101088.47;4951661;28;20619;-68
2022/08/11 09:06:06;;;;;;;3.30;3.10;;;30.10;45.00;;;30.78;27.58;101086.53;4971195;28;20631;-67
2022/08/11 09:08:34;;;;;;;3.40;3.20;;;29.90;45.30;;;31.16;27.13;101085.09;4954343;28;20638;-72
2022/08/11 09:13:51;;;;;;;2.60;2.50;;;30.00;44.80;;;30.99;26.87;101080.59;4976336;28;20666;-69
2022/08/11 09:16:35;;;;;;;2.80;2.60;;;30.00;44.90;;;31.05;26.44;101074.31;4990431;28;20756;-69
2022/08/11 09:19:02;;;;;;;2.83;2.63;;;30.00;44.60;;;30.85;26.67;101079.16;4966469;28;20635;-69
2022/08/11 09:21:31;;;;;;;2.80;2.60;;;29.90;44.60;;;30.85;26.66;101080.00;4960541;28;20664;-69
2022/08/11 09:27:06;;;;;;;1.60;1.57;;;29.80;44.50;;;30.34;27.50;101090.50;4961510;28;20646;-69
2022/08/11 09:29:33;;;;;;;2.40;2.30;;;29.50;45.20;;;30.13;27.63;101089.13;4955820;28;20634;-68
2022/08/11 09:32:01;;;;;;;2.50;2.37;;;29.40;45.20;;;30.08;28.02;101083.56;4990998;28;20726;-67
2022/08/11 09:34:28;;;;;;;2.43;2.33;;;29.20;45.30;;;30.19;27.52;101088.19;4966144;28;20682;-68
2022/08/11 09:45:50;;;;;;;2.20;2.00;;;29.50;46.10;;;32.41;25.26;101088.84;4956812;28;21135;-66
2022/08/11 09:48:23;;;;;;;2.80;2.70;;;30.50;44.50;;;31.76;26.06;101082.94;4965635;28;20621;-67
2022/08/11 09:50:54;;;;;;;4.43;3.20;;;30.40;44.70;;;32.53;25.53;101075.31;4982580;28;21246;-67
2022/08/11 09:53:22;;;;;;;3.07;2.90;;;30.70;44.80;;;33.89;23.79;101077.38;4971402;28;20660;-67
2022/08/11 09:58:54;;;;;;;2.40;2.30;;;32.50;43.00;;;33.36;22.91;101078.84;4967554;28;20642;-66
2022/08/11 10:01:25;;;;;;;4.97;3.57;;;32.10;41.80;;;32.49;24.78;101072.28;4968267;28;20664;-66
2022/08/11 10:04:29;;;;;;;3.07;2.87;;;31.40;43.30;;;32.83;23.75;101089.34;4969432;28;21148;-65
2022/08/11 10:07:09;;;;;;;3.40;3.10;;;31.70;42.60;;;32.57;24.17;101071.88;4964192;28;20631;-66
2022/08/11 10:09:49;;;;;;;1.90;1.80;;;31.50;42.50;;;32.60;23.20;101065.16;4971493;28;20707;-69
2022/08/11 10:12:24;;;;;;;2.50;2.40;;;31.50;41.40;;;32.49;23.38;101068.75;4944035;28;20639;-68
2022/08/11 10:15:37;;;;;;;2.70;2.43;;;31.30;42.10;;;31.87;24.23;101065.09;4964684;28;21183;-67
2022/08/11 10:21:09;;;;;;;2.93;2.57;;;30.70;42.20;;;32.07;23.98;101052.03;4974680;23;20697;-65
2022/08/11 10:26:55;;;;;;;3.10;2.63;;;30.90;42.10;;;31.82;24.93;101064.97;5017124;28;20604;-66
2022/08/11 10:35:31;;;;;;;2.70;2.50;;;30.00;42.40;;;31.22;24.11;101045.59;4989818;28;20661;-68
2022/08/11 10:37:59;;;;;;;2.37;2.20;;;30.10;42.30;;;31.76;23.77;101049.75;4997058;28;21181;-63
2022/08/11 10:40:39;;;;;;;1.13;1.13;;;30.40;42.10;;;31.57;24.34;101056.34;4996463;28;20660;-65
2022/08/11 10:43:13;;;;;;;5.23;2.80;;;30.50;41.70;;;31.55;23.57;101047.69;5008565;28;21169;-66
2022/08/11 10:48:57;;;;;;;2.40;2.30;;;30.50;41.80;;;31.72;23.60;101044.00;5009838;28;20709;-65
2022/08/11 10:59:55;;;;;;;2.50;2.33;;;30.80;41.00;;;31.88;23.39;101027.06;4999350;28;20618;-67
2022/08/11 11:02:22;;;;;;;12.73;6.93;;;30.80;41.20;;;31.93;23.40;101023.63;4987690;28;20635;-65
2022/08/11 11:05:28;;;;;;;5.23;4.83;;;30.70;41.40;;;31.97;23.15;101022.13;4998730;28;21181;-68
2022/08/11 11:11:00;;;;;;;2.60;2.43;;;30.80;41.50;;;31.59;23.56;101005.69;4981023;28;20646;-64
2022/08/11 11:19:11;;;;;;;2.63;2.53;;;30.30;41.50;;;31.43;22.74;101015.34;4984819;28;20606;-65
2022/08/11 11:21:38;;;;;;;4.37;3.40;;;30.30;40.80;;;31.25;23.69;101004.66;4996110;28;20653;-65
2022/08/11 11:24:38;;;;;;;3.20;3.00;;;30.10;41.20;;;31.15;23.85;100999.91;4982363;28;20628;-69
2022/08/11 11:27:56;;;;;;;2.80;2.70;;;30.00;41.20;;;30.95;23.96;101004.81;5012320;28;21008;-65
2022/08/11 11:30:34;;;;;;;2.97;2.80;;;29.90;41.50;;;31.00;23.99;100991.47;4996609;28;20694;-65
2022/08/11 11:33:14;;;;;;;2.50;2.40;;;29.80;41.60;;;30.98;23.58;100988.19;4965334;28;21057;-67
2022/08/11 11:35:55;;;;;;;3.50;3.27;;;29.80;41.40;;;30.99;23.77;100976.34;4995132;28;20630;-66
2022/08/11 11:38:22;;;;;;;1.83;1.80;;;29.90;41.80;;;31.04;23.62;100984.53;5008962;28;20601;-68
2022/08/11 11:41:23;;;;;;;3.63;3.10;;;29.90;41.30;;;30.85;24.04;100976.78;4992927;28;20722;-64
2022/08/11 11:43:37;;;;;;;3.60;3.30;;;29.80;41.10;;;30.92;23.50;100972.13;5010738;28;20629;-66
2022/08/11 11:46:06;;;;;;;2.83;2.60;;;29.70;41.20;;;30.89;23.69;100970.72;4993962;28;20626;-65
2022/08/11 11:48:36;;;;;;;6.10;2.90;;;29.80;41.20;;;30.78;23.78;100971.50;5005238;28;20721;-65
2022/08/11 11:51:03;;;;;;;3.53;3.30;;;29.70;41.20;;;30.72;23.65;100988.63;5012723;28;20747;-66
2022/08/11 11:53:30;;;;;;;3.80;3.10;;;29.60;41.40;;;30.74;23.73;100964.94;4995050;28;20632;-69
2022/08/11 11:55:59;;;;;;;3.00;2.80;;;29.60;41.40;;;30.70;24.02;100963.78;5012095;28;20665;-65
2022/08/11 12:01:17;;;;;;;5.07;4.30;;;29.60;41.70;;;30.91;24.02;100962.41;4992535;28;21225;-66
2022/08/11 12:03:51;;;;;;;2.23;2.03;;;29.70;41.50;;;30.28;24.04;100968.41;4994997;28;20618;-66
2022/08/11 12:06:22;;;;;;;2.80;2.60;;;29.50;40.80;;;30.20;23.57;100963.31;4993370;28;20632;-67
2022/08/11 12:08:52;;;;;;;3.60;3.27;;;29.30;40.90;;;30.31;23.86;100973.34;5002736;28;21218;-63
2022/08/11 12:14:11;;;;;;;3.10;2.93;;;29.40;41.20;;;30.51;24.11;100955.00;4998173;28;20625;-68
2022/08/11 12:16:43;;;;;;;3.13;2.93;;;29.40;41.30;;;30.55;23.43;100939.19;4995170;28;20666;-66
2022/08/11 12:19:20;;;;;;;2.17;2.07;;;29.40;40.60;;;30.27;24.31;100957.84;5013076;28;20708;-67
2022/08/11 12:27:21;;;;;;;3.40;3.10;;;29.40;41.40;;;30.59;23.93;100930.41;4989828;28;20614;-67
2022/08/11 12:29:56;;;;;;;5.30;2.97;;;29.50;41.50;;;30.63;24.06;100926.19;4989673;28;21037;-67
2022/08/11 12:32:30;;;;;;;3.03;2.83;;;29.50;41.60;;;30.58;23.99;100922.56;4975419;28;20643;-68
2022/08/11 12:34:57;;;;;;;3.40;3.20;;;29.60;41.40;;;30.67;24.00;100917.66;4979724;28;20768;-69
2022/08/11 12:37:42;;;;;;;3.80;3.50;;;29.60;41.80;;;30.82;24.27;100934.13;4994539;28;20756;-69
2022/08/11 12:46:30;;;;;;;5.47;3.10;;;29.60;41.20;;;30.54;23.76;100905.22;4986492;28;20622;-69
2022/08/11 12:52:03;;;;;;;2.87;2.73;;;29.50;41.40;;;30.61;24.39;100906.75;4997577;28;20717;-68
2022/08/11 12:55:06;;;;;;;5.27;3.13;;;29.50;41.60;;;30.64;24.87;100921.63;4996221;28;20998;-69
2022/08/11 13:06:06;;;;;;;4.10;3.80;;;29.60;42.20;;;30.78;24.50;100885.31;5000511;28;20636;-68
2022/08/11 13:08:37;;;;;;;7.20;3.03;;;29.60;41.90;;;30.81;24.28;100884.03;4994577;28;20622;-67
2022/08/11 13:13:54;;;;;;;3.37;3.17;;;29.80;41.80;;;30.88;24.42;100879.38;4996748;28;20622;-68
2022/08/11 13:17:19;;;;;;;3.80;3.50;;;29.80;41.90;;;30.88;24.24;100876.66;4994803;28;21260;-67
2022/08/11 13:19:20;;;;;;;3.13;3.03;;;29.80;42.80;;;30.85;24.58;100860.94;4996951;28;20628;-69
2022/08/11 13:21:49;;;;;;;4.23;3.60;;;29.70;41.80;;;30.91;24.18;100860.84;5011877;28;20654;-70
2022/08/11 13:24:17;;;;;;;4.07;3.40;;;29.70;41.60;;;30.71;24.65;100865.75;5008039;28;20627;-67
2022/08/11 13:26:45;;;;;;;3.47;3.27;;;29.70;41.90;;;30.86;24.14;100854.53;5002207;28;20725;-67
2022/08/11 13:29:20;;;;;;;1.90;1.80;;;29.80;41.70;;;30.97;23.83;100850.97;4994602;28;20637;-69
2022/08/11 13:31:48;;;;;;;4.20;3.90;;;29.90;41.80;;;30.96;24.20;100842.09;4992766;28;20673;-69
2022/08/11 13:34:17;;;;;;;4.27;3.97;;;29.90;41.60;;;30.97;24.16;100850.97;4999897;28;20725;-68
2022/08/11 13:36:51;;;;;;;5.10;3.80;;;29.90;41.60;;;31.16;23.51;100850.56;5002332;28;20658;-68
2022/08/11 13:39:29;;;;;;;2.77;2.57;;;30.00;41.10;;;31.08;23.33;100852.81;4988093;28;20631;-68
2022/08/11 13:41:59;;;;;;;2.30;2.20;;;30.00;40.40;;;31.05;22.96;100851.41;4991077;28;20674;-70
2022/08/11 13:44:34;;;;;;;2.37;2.27;;;30.00;40.60;;;30.98;23.14;100855.31;4977229;28;20648;-69
2022/08/11 13:47:05;;;;;;;4.20;3.60;;;30.00;40.40;;;30.96;23.06;100849.34;5009444;28;20613;-69
2022/08/11 13:49:38;;;;;;;2.37;2.27;;;30.00;40.50;;;30.92;22.97;100845.50;4994451;28;20677;-68
2022/08/11 13:52:13;;;;;;;3.57;3.27;;;30.00;40.00;;;31.00;22.35;100837.84;4992467;28;20637;-68
2022/08/11 13:54:42;;;;;;;4.20;3.90;;;30.00;40.20;;;31.08;22.58;100832.09;4977267;28;21169;-68
2022/08/11 13:57:14;;;;;;;3.30;3.10;;;30.00;40.20;;;31.07;23.00;100818.84;4991340;28;20625;-69
2022/08/11 14:00:10;;;;;;;2.60;2.40;;;29.90;40.30;;;31.20;22.80;100832.84;4999714;28;20633;-67
2022/08/11 14:02:52;;;;;;;3.47;3.27;;;30.00;40.60;;;31.19;23.10;100839.31;5010274;28;21036;-69
2022/08/11 14:05:27;;;;;;;10.70;3.27;;;30.10;40.60;;;31.12;23.12;100821.63;4980198;28;20685;-68
2022/08/11 14:08:10;;;;;;;3.90;3.47;;;30.10;40.30;;;30.97;23.36;100821.31;4973848;28;20721;-69
2022/08/11 14:14:10;;;;;;;3.43;3.13;;;30.00;40.60;;;31.09;23.11;100812.16;4979399;28;20626;-69
2022/08/11 14:16:41;;;;;;;3.53;3.33;;;29.90;40.70;;;31.05;22.99;100802.91;4990862;28;21233;-69
2022/08/11 14:19:13;;;;;;;3.40;3.20;;;29.90;40.60;;;31.15;22.99;100810.38;4992592;28;20608;-68
2022/08/11 14:24:44;;;;;;;3.40;3.20;;;30.00;40.80;;;31.32;22.30;100798.59;5012259;28;21187;-68
2022/08/11 14:27:12;;;;;;;3.53;3.30;;;30.20;39.80;;;31.41;22.46;100807.13;4997139;28;20629;-68
2022/08/11 14:30:00;;;;;;;4.80;3.20;;;30.20;39.80;;;31.36;22.53;100802.44;4984704;28;20630;-68
2022/08/11 14:32:27;;;;;;;5.77;2.13;;;30.20;40.00;;;31.31;22.94;100804.19;5013848;28;20676;-69
2022/08/11 14:34:54;;;;;;;3.50;3.20;;;30.20;40.00;;;31.30;23.13;100792.63;5014418;28;21271;-67
2022/08/11 14:37:24;;;;;;;2.83;2.63;;;30.20;40.40;;;31.26;22.27;100802.22;4980987;28;20667;-67
2022/08/11 14:47:03;;;;;;;3.17;2.97;;;30.20;39.80;;;31.37;21.79;100797.84;4977757;28;21182;-68
2022/08/11 14:48:26;;;;;;;1.87;1.67;;;30.20;39.30;;;31.13;22.14;100786.38;5013834;28;20649;-67
2022/08/11 14:50:53;;;;;;;3.90;2.57;;;30.20;39.00;;;31.22;21.83;100778.72;5013452;28;20639;-68
2022/08/11 14:53:22;;;;;;;3.30;3.10;;;30.10;39.10;;;31.27;22.23;100779.63;5014107;28;20724;-68
2022/08/11 14:58:36;;;;;;;2.27;2.17;;;30.20;39.50;;;31.32;21.49;100785.13;5010188;28;20654;-68
2022/08/11 15:03:05;;;;;;;3.50;3.30;;;30.20;39.00;;;31.33;22.90;100764.34;4986758;28;20657;-68
2022/08/11 15:03:55;;;;;;;3.43;2.70;;;30.20;40.20;;;31.16;22.54;100783.19;4989539;28;20681;-66
2022/08/11 15:06:42;;;;;;;3.20;3.00;;;30.00;39.70;;;31.18;22.15;100766.75;4999156;28;20613;-68
2022/08/11 15:09:09;;;;;;;3.03;2.93;;;30.00;39.60;;;31.21;22.16;100764.41;4980316;28;20721;-67
2022/08/11 15:17:47;;;;;;;2.50;2.30;;;30.20;39.10;;;31.29;22.12;100757.81;4990167;28;20616;-68
2022/08/11 15:25:57;;;;;;;4.10;2.40;;;30.20;39.10;;;31.34;22.25;100756.03;4986582;28;20630;-70
2022/08/11 15:45:46;;;;;;;2.60;2.40;;;30.30;38.70;;;31.43;21.51;100750.25;4999185;28;20617;-68
2022/08/11 15:46:01;;;;;;;3.90;3.20;;;30.30;38.80;;;31.40;21.65;100730.00;4997469;28;20724;-69
2022/08/11 15:48:45;;;;;;;3.07;2.93;;;30.20;39.10;;;31.32;22.23;100747.38;5001667;28;20615;-65